Time;durP1;ratioP1;P1;durP2;ratioP2;P2;SDS_P1;SDS_P2;PMS_P1;PMS_P2;Temp;Humidity;BMP_temperature;BMP_pressure;BME280_temperature;BME280_humidity;BME280_pressure;Samples;Min_cycle;Max_cycle;Signal;HPM_P1;HPM_P2
2022/05/04 00:02:22;;;;;;;6.38;2.55;;;;;;;;;;4836449;29;20030;-79
2022/05/04 00:04:47;;;;;;;5.35;2.53;;;;;;;;;;4851254;29;20061;-88
2022/05/04 00:07:13;;;;;;;5.10;2.40;;;;;;;;;;4840279;29;20038;-81
2022/05/04 00:09:38;;;;;;;6.00;2.45;;;;;;;;;;4854600;29;20191;-86
2022/05/04 00:12:04;;;;;;;6.00;2.83;;;;;;;;;;4834591;29;20049;-79
2022/05/04 00:14:29;;;;;;;5.63;2.30;;;;;;;;;;4854572;29;20399;-83
2022/05/04 00:16:54;;;;;;;7.90;2.92;;;;;;;;;;4851989;29;20121;-81
2022/05/04 00:19:20;;;;;;;5.72;2.78;;;;;;;;;;4842652;29;21688;-85
2022/05/04 00:21:45;;;;;;;7.40;2.40;;;;;;;;;;4855209;29;20037;-83
2022/05/04 00:24:11;;;;;;;8.85;2.63;;;;;;;;;;4837283;29;20049;-83
2022/05/04 00:26:36;;;;;;;6.35;2.53;;;;;;;;;;4848987;29;20064;-85
2022/05/04 00:29:01;;;;;;;5.88;2.38;;;;;;;;;;4853355;29;20170;-83
2022/05/04 00:31:27;;;;;;;4.82;2.17;;;;;;;;;;4856716;29;20102;-80
2022/05/04 00:33:52;;;;;;;5.32;2.35;;;;;;;;;;4840697;29;20517;-87
2022/05/04 00:36:17;;;;;;;6.88;2.67;;;;;;;;;;4858930;29;21784;-80
2022/05/04 00:38:43;;;;;;;5.13;2.15;;;;;;;;;;4841001;29;20029;-81
2022/05/04 00:41:08;;;;;;;5.78;2.45;;;;;;;;;;4852979;29;20049;-86
2022/05/04 00:43:34;;;;;;;7.80;2.30;;;;;;;;;;4834604;29;20480;-86
2022/05/04 00:45:59;;;;;;;7.35;2.70;;;;;;;;;;4840767;29;20030;-83
2022/05/04 00:48:24;;;;;;;5.95;2.53;;;;;;;;;;4836642;29;20541;-86
2022/05/04 00:50:51;;;;;;;6.90;2.78;;;;;;;;;;4834667;29;20025;-85
2022/05/04 00:53:19;;;;;;;5.35;2.55;;;;;;;;;;4838272;29;20097;-84
2022/05/04 00:55:46;;;;;;;5.28;2.55;;;;;;;;;;4852508;29;20420;-80
2022/05/04 01:00:59;;;;;;;5.38;2.40;;;;;;;;;;4851222;29;20039;-82
2022/05/04 01:03:24;;;;;;;6.20;2.40;;;;;;;;;;4851798;29;20033;-83
2022/05/04 01:05:49;;;;;;;6.63;2.30;;;;;;;;;;4841424;29;20029;-87
2022/05/04 01:08:15;;;;;;;5.00;2.30;;;;;;;;;;4839215;29;20066;-81
2022/05/04 01:10:40;;;;;;;3.80;2.08;;;;;;;;;;4851724;29;20030;-83
2022/05/04 01:13:06;;;;;;;5.93;2.80;;;;;;;;;;4853493;29;20021;-83
2022/05/04 01:15:31;;;;;;;6.40;2.35;;;;;;;;;;4840148;29;20038;-82
2022/05/04 01:17:57;;;;;;;4.65;2.35;;;;;;;;;;4834603;29;20069;-83
2022/05/04 01:20:24;;;;;;;7.50;2.50;;;;;;;;;;4837554;29;20078;-80
2022/05/04 01:22:50;;;;;;;6.07;2.50;;;;;;;;;;4835222;29;20036;-81
2022/05/04 01:25:15;;;;;;;6.00;2.75;;;;;;;;;;4855191;29;20042;-86
2022/05/04 01:27:40;;;;;;;4.35;2.30;;;;;;;;;;4848557;29;20117;-86
2022/05/04 01:30:07;;;;;;;6.05;2.30;;;;;;;;;;4838145;29;20029;-82
2022/05/04 01:32:33;;;;;;;4.78;2.10;;;;;;;;;;4852258;29;20060;-83
2022/05/04 01:34:58;;;;;;;5.00;2.28;;;;;;;;;;4838274;29;20060;-83
2022/05/04 01:37:24;;;;;;;5.63;2.35;;;;;;;;;;4853186;29;20025;-81
2022/05/04 01:39:49;;;;;;;4.72;2.35;;;;;;;;;;4837617;29;20049;-80
2022/05/04 01:42:16;;;;;;;5.20;2.47;;;;;;;;;;4833864;29;20076;-80
2022/05/04 01:44:43;;;;;;;3.85;2.30;;;;;;;;;;4853235;29;20025;-85
2022/05/04 01:47:08;;;;;;;4.05;2.33;;;;;;;;;;4833298;29;20038;-80
2022/05/04 01:49:34;;;;;;;6.55;2.38;;;;;;;;;;4841579;29;20485;-80
2022/05/04 01:52:00;;;;;;;4.95;2.33;;;;;;;;;;4836606;29;20034;-81
2022/05/04 01:54:26;;;;;;;7.10;2.38;;;;;;;;;;4853961;29;20037;-85
2022/05/04 01:56:52;;;;;;;9.07;2.95;;;;;;;;;;4835399;29;20033;-81
2022/05/04 01:59:17;;;;;;;5.55;2.90;;;;;;;;;;4852198;29;20412;-88
2022/05/04 02:01:43;;;;;;;6.25;2.75;;;;;;;;;;4851929;29;20061;-84
2022/05/04 02:04:08;;;;;;;3.75;1.98;;;;;;;;;;4836762;29;20452;-80
2022/05/04 02:06:36;;;;;;;6.15;2.42;;;;;;;;;;4851997;29;20045;-81
2022/05/04 02:09:01;;;;;;;6.68;2.67;;;;;;;;;;4855032;29;20124;-88
2022/05/04 02:11:28;;;;;;;5.70;2.42;;;;;;;;;;4836396;29;20109;-86
2022/05/04 02:13:54;;;;;;;5.82;2.70;;;;;;;;;;4848695;29;20030;-87
2022/05/04 02:16:19;;;;;;;5.13;2.67;;;;;;;;;;4836927;29;21536;-80
2022/05/04 02:18:44;;;;;;;4.40;2.25;;;;;;;;;;4837076;29;20037;-82
2022/05/04 02:21:10;;;;;;;5.45;2.35;;;;;;;;;;4851823;29;20037;-81
2022/05/04 02:23:35;;;;;;;5.53;2.40;;;;;;;;;;4851217;29;20444;-81
2022/05/04 02:26:01;;;;;;;6.30;2.60;;;;;;;;;;4853106;29;20389;-82
2022/05/04 02:28:26;;;;;;;5.70;2.53;;;;;;;;;;4853438;29;20060;-85
2022/05/04 02:30:51;;;;;;;6.20;2.60;;;;;;;;;;4843471;29;20028;-80
2022/05/04 02:33:17;;;;;;;8.30;3.08;;;;;;;;;;4838452;29;20037;-87
2022/05/04 02:38:27;;;;;;;5.65;2.38;;;;;;;;;;4850431;29;20413;-85
2022/05/04 02:40:52;;;;;;;6.45;2.45;;;;;;;;;;4852582;29;20062;-79
2022/05/04 02:43:18;;;;;;;5.43;2.83;;;;;;;;;;4852469;29;20071;-86
2022/05/04 02:45:44;;;;;;;3.88;2.38;;;;;;;;;;4845942;29;20029;-86
2022/05/04 02:48:09;;;;;;;5.63;2.50;;;;;;;;;;4829070;29;20510;-82
2022/05/04 02:50:36;;;;;;;5.32;2.38;;;;;;;;;;4853610;29;20067;-78
2022/05/04 02:53:01;;;;;;;5.00;2.63;;;;;;;;;;4835490;29;20033;-81
2022/05/04 02:55:27;;;;;;;5.32;2.10;;;;;;;;;;4851465;29;20503;-80
2022/05/04 02:57:52;;;;;;;6.20;2.65;;;;;;;;;;4841184;29;20034;-86
2022/05/04 03:00:18;;;;;;;6.18;2.40;;;;;;;;;;4836653;29;20040;-82
2022/05/04 03:02:44;;;;;;;5.35;2.28;;;;;;;;;;4849878;29;20388;-82
2022/05/04 03:05:12;;;;;;;5.07;2.35;;;;;;;;;;4836013;29;20032;-87
2022/05/04 03:07:37;;;;;;;4.20;2.30;;;;;;;;;;4839841;29;20117;-85
2022/05/04 03:10:04;;;;;;;4.30;2.55;;;;;;;;;;4837465;29;20128;-82
2022/05/04 03:12:30;;;;;;;5.97;2.50;;;;;;;;;;4837363;29;20388;-82
2022/05/04 03:14:55;;;;;;;4.65;2.60;;;;;;;;;;4833309;29;20034;-86
2022/05/04 03:17:21;;;;;;;5.22;2.45;;;;;;;;;;4837055;29;20034;-86
2022/05/04 03:19:47;;;;;;;6.10;2.50;;;;;;;;;;4835942;29;20040;-86
2022/05/04 03:22:13;;;;;;;5.93;2.60;;;;;;;;;;4856073;29;20029;-82
2022/05/04 03:24:38;;;;;;;4.95;2.42;;;;;;;;;;4851070;29;20033;-82
2022/05/04 03:27:05;;;;;;;6.20;2.70;;;;;;;;;;4833386;29;20066;-79
2022/05/04 03:29:30;;;;;;;4.63;2.53;;;;;;;;;;4852940;29;20489;-81
2022/05/04 03:31:56;;;;;;;6.93;2.30;;;;;;;;;;4835048;29;20024;-86
2022/05/04 03:34:21;;;;;;;8.23;2.55;;;;;;;;;;4838960;29;20480;-80
2022/05/04 03:36:47;;;;;;;4.68;2.38;;;;;;;;;;4851893;29;20029;-79
2022/05/04 03:39:12;;;;;;;5.88;2.65;;;;;;;;;;4837085;29;20106;-81
2022/05/04 03:41:38;;;;;;;6.25;2.80;;;;;;;;;;4834415;29;20033;-87
2022/05/04 03:44:05;;;;;;;8.90;2.97;;;;;;;;;;4850409;29;20025;-87
2022/05/04 03:46:44;;;;;;;8.30;3.08;;;;;;;;;;4833328;29;20042;-86
2022/05/04 03:49:11;;;;;;;4.63;2.15;;;;;;;;;;4850400;29;20097;-80
2022/05/04 03:51:37;;;;;;;7.07;2.85;;;;;;;;;;4831554;29;20100;-83
2022/05/04 03:54:03;;;;;;;5.80;2.70;;;;;;;;;;4850338;29;20030;-82
2022/05/04 03:56:29;;;;;;;5.88;2.88;;;;;;;;;;4847095;29;20037;-81
2022/05/04 03:58:54;;;;;;;4.63;2.45;;;;;;;;;;4850413;29;20480;-87
2022/05/04 04:01:20;;;;;;;6.28;2.75;;;;;;;;;;4831835;29;20506;-86
2022/05/04 04:03:45;;;;;;;6.72;2.40;;;;;;;;;;4852993;29;20477;-82
2022/05/04 04:06:11;;;;;;;6.50;2.60;;;;;;;;;;4853703;29;20426;-86
2022/05/04 04:08:37;;;;;;;6.28;2.75;;;;;;;;;;4836134;29;20029;-79
2022/05/04 04:11:03;;;;;;;5.07;2.40;;;;;;;;;;4848738;29;20034;-79
2022/05/04 04:13:29;;;;;;;4.55;2.20;;;;;;;;;;4836761;29;20042;-82
2022/05/04 04:15:55;;;;;;;7.55;3.03;;;;;;;;;;4834583;29;20113;-81
2022/05/04 04:18:22;;;;;;;5.03;2.70;;;;;;;;;;4850440;29;20033;-83
2022/05/04 04:23:32;;;;;;;6.07;2.53;;;;;;;;;;4852672;29;20470;-83
2022/05/04 04:25:58;;;;;;;5.72;2.47;;;;;;;;;;4836576;29;20034;-82
2022/05/04 04:28:23;;;;;;;5.03;2.20;;;;;;;;;;4828915;29;20130;-81
2022/05/04 04:30:49;;;;;;;8.20;2.38;;;;;;;;;;4836941;29;20456;-85
2022/05/04 04:33:14;;;;;;;5.50;2.50;;;;;;;;;;4847857;29;20485;-82
2022/05/04 04:35:40;;;;;;;8.05;2.78;;;;;;;;;;4836441;29;20029;-80
2022/05/04 04:38:07;;;;;;;7.65;2.75;;;;;;;;;;4852797;29;20034;-80
2022/05/04 04:40:33;;;;;;;4.28;2.42;;;;;;;;;;4839434;29;20053;-80
2022/05/04 04:43:00;;;;;;;5.10;2.30;;;;;;;;;;4835928;29;20033;-80
2022/05/04 04:45:26;;;;;;;6.00;2.50;;;;;;;;;;4833449;29;20053;-80
2022/05/04 04:47:52;;;;;;;6.63;2.70;;;;;;;;;;4832140;29;20397;-81
2022/05/04 04:50:17;;;;;;;3.55;2.25;;;;;;;;;;4852295;29;20034;-82
2022/05/04 04:52:42;;;;;;;4.82;2.50;;;;;;;;;;4839789;29;20049;-80
2022/05/04 04:55:08;;;;;;;8.63;2.75;;;;;;;;;;4851275;29;20048;-79
2022/05/04 04:57:33;;;;;;;4.97;2.30;;;;;;;;;;4856251;29;20504;-79
2022/05/04 05:00:00;;;;;;;6.10;2.45;;;;;;;;;;4852874;29;20112;-82
2022/05/04 05:02:25;;;;;;;6.38;2.90;;;;;;;;;;4850668;29;20029;-86
2022/05/04 05:04:50;;;;;;;4.65;2.20;;;;;;;;;;4840471;29;20056;-80
2022/05/04 05:07:16;;;;;;;7.07;2.30;;;;;;;;;;4854819;29;20056;-79
2022/05/04 05:09:41;;;;;;;5.13;2.53;;;;;;;;;;4852706;29;20480;-80
2022/05/04 05:12:07;;;;;;;6.05;2.60;;;;;;;;;;4856506;29;20025;-78
2022/05/04 05:17:16;;;;;;;5.45;2.22;;;;;;;;;;4852454;29;20057;-85
2022/05/04 05:19:42;;;;;;;5.68;2.50;;;;;;;;;;4841367;29;20033;-82
2022/05/04 05:22:07;;;;;;;5.15;2.25;;;;;;;;;;4855279;29;20032;-86
2022/05/04 05:24:32;;;;;;;6.88;2.47;;;;;;;;;;4838179;29;20037;-82
2022/05/04 05:26:58;;;;;;;3.88;2.03;;;;;;;;;;4839969;29;20061;-86
2022/05/04 05:29:23;;;;;;;4.10;2.20;;;;;;;;;;4841353;29;20033;-86
2022/05/04 05:31:48;;;;;;;6.47;2.40;;;;;;;;;;4839956;29;20029;-86
2022/05/04 05:34:14;;;;;;;6.88;2.53;;;;;;;;;;4836775;29;20091;-79
2022/05/04 05:36:39;;;;;;;6.82;2.25;;;;;;;;;;4840075;29;20082;-78
2022/05/04 05:39:04;;;;;;;5.60;2.10;;;;;;;;;;4837947;29;20041;-87
2022/05/04 05:41:31;;;;;;;5.47;2.22;;;;;;;;;;4838129;29;20466;-81
2022/05/04 05:44:00;;;;;;;5.07;2.10;;;;;;;;;;4852978;29;20053;-80
2022/05/04 05:46:25;;;;;;;5.43;2.47;;;;;;;;;;4834422;29;20086;-79
2022/05/04 05:48:51;;;;;;;6.32;2.45;;;;;;;;;;4853958;29;20033;-80
2022/05/04 05:51:16;;;;;;;5.25;2.20;;;;;;;;;;4852940;29;20483;-82
2022/05/04 05:53:41;;;;;;;4.97;2.20;;;;;;;;;;4855528;29;20132;-86
2022/05/04 05:56:07;;;;;;;4.57;2.20;;;;;;;;;;4839428;29;20395;-80
2022/05/04 05:58:32;;;;;;;4.88;2.00;;;;;;;;;;4835252;29;20034;-80
2022/05/04 06:00:58;;;;;;;6.05;2.40;;;;;;;;;;4831470;29;20110;-88
2022/05/04 06:03:23;;;;;;;6.47;2.08;;;;;;;;;;4832121;29;20033;-84
2022/05/04 06:05:49;;;;;;;7.53;2.22;;;;;;;;;;4847592;29;20113;-84
2022/05/04 06:08:14;;;;;;;5.28;2.20;;;;;;;;;;4834373;29;20056;-79
2022/05/04 06:10:39;;;;;;;4.97;2.00;;;;;;;;;;4836609;29;21016;-85
2022/05/04 06:13:06;;;;;;;6.13;2.40;;;;;;;;;;4831744;29;20038;-79
2022/05/04 06:15:31;;;;;;;6.80;2.88;;;;;;;;;;4854383;29;20454;-78
2022/05/04 06:17:57;;;;;;;4.90;2.45;;;;;;;;;;4848381;29;20029;-79
2022/05/04 06:20:23;;;;;;;6.60;2.78;;;;;;;;;;4830053;29;20487;-79
2022/05/04 06:22:49;;;;;;;6.35;2.25;;;;;;;;;;4836265;29;20124;-79
2022/05/04 06:25:15;;;;;;;5.07;2.38;;;;;;;;;;4850825;29;20040;-83
2022/05/04 06:27:40;;;;;;;7.47;3.28;;;;;;;;;;4853986;29;20408;-82
2022/05/04 06:35:34;;;;;;;5.93;2.10;;;;;;;;;;4856815;29;20044;-78
2022/05/04 06:38:00;;;;;;;6.80;2.50;;;;;;;;;;4839180;29;20396;-80
2022/05/04 06:40:25;;;;;;;5.78;2.47;;;;;;;;;;4855988;29;20064;-79
2022/05/04 06:42:51;;;;;;;5.95;2.35;;;;;;;;;;4855109;29;20029;-78
2022/05/04 06:45:16;;;;;;;7.32;2.65;;;;;;;;;;4853253;29;20503;-82
2022/05/04 06:47:42;;;;;;;4.72;2.72;;;;;;;;;;4835006;29;20061;-82
2022/05/04 06:50:08;;;;;;;6.65;2.85;;;;;;;;;;4839977;29;20025;-79
2022/05/04 06:52:37;;;;;;;6.03;2.88;;;;;;;;;;4838673;29;20026;-85
2022/05/04 06:55:03;;;;;;;7.25;2.58;;;;;;;;;;4849538;29;20480;-78
2022/05/04 06:57:29;;;;;;;6.57;2.70;;;;;;;;;;4853508;29;20058;-78
2022/05/04 06:59:55;;;;;;;6.80;2.65;;;;;;;;;;4836342;29;20048;-80
2022/05/04 07:02:20;;;;;;;5.38;2.30;;;;;;;;;;4850902;29;20030;-83
2022/05/04 07:04:45;;;;;;;7.32;2.60;;;;;;;;;;4855221;29;20132;-78
2022/05/04 07:07:11;;;;;;;7.80;2.50;;;;;;;;;;4855107;29;20536;-80
2022/05/04 07:09:36;;;;;;;4.30;2.08;;;;;;;;;;4838784;29;20085;-82
2022/05/04 07:12:03;;;;;;;6.60;2.20;;;;;;;;;;4853495;29;20394;-82
2022/05/04 07:14:28;;;;;;;5.80;2.60;;;;;;;;;;4854409;29;20069;-80
2022/05/04 07:16:53;;;;;;;6.43;2.40;;;;;;;;;;4833713;29;20460;-78
2022/05/04 07:19:19;;;;;;;5.93;2.30;;;;;;;;;;4838074;29;20118;-79
2022/05/04 07:21:45;;;;;;;4.13;2.42;;;;;;;;;;4832566;29;20037;-82
2022/05/04 07:24:11;;;;;;;7.95;2.72;;;;;;;;;;4837612;29;20041;-82
2022/05/04 07:26:38;;;;;;;5.07;2.60;;;;;;;;;;4845722;29;20026;-83
2022/05/04 07:29:03;;;;;;;4.90;2.83;;;;;;;;;;4834453;29;20037;-82
2022/05/04 07:31:29;;;;;;;7.03;3.10;;;;;;;;;;4835919;29;20038;-79
2022/05/04 07:33:54;;;;;;;9.15;2.67;;;;;;;;;;4853417;29;20037;-84
2022/05/04 07:36:20;;;;;;;5.95;2.67;;;;;;;;;;4847231;29;20029;-79
2022/05/04 07:38:45;;;;;;;8.35;3.10;;;;;;;;;;4836943;29;20037;-80
2022/05/04 07:43:56;;;;;;;3.95;2.60;;;;;;;;;;4849602;29;20146;-80
2022/05/04 07:46:21;;;;;;;5.00;2.72;;;;;;;;;;4833856;29;20400;-81
2022/05/04 07:48:46;;;;;;;6.72;3.33;;;;;;;;;;4837565;29;21298;-83
2022/05/04 07:51:12;;;;;;;5.68;2.65;;;;;;;;;;4834964;29;20037;-81
2022/05/04 07:53:37;;;;;;;5.65;2.80;;;;;;;;;;4848347;29;20037;-78
2022/05/04 07:56:03;;;;;;;6.00;2.92;;;;;;;;;;4845858;29;20093;-79
2022/05/04 07:58:29;;;;;;;5.45;2.83;;;;;;;;;;4850842;29;20532;-83
2022/05/04 08:06:22;;;;;;;7.18;3.22;;;;;;;;;;4849925;29;20071;-80
2022/05/04 08:08:47;;;;;;;8.00;3.95;;;;;;;;;;4850824;29;20119;-82
2022/05/04 08:11:12;;;;;;;9.32;3.40;;;;;;;;;;4847257;29;20568;-81
2022/05/04 08:13:38;;;;;;;7.03;3.50;;;;;;;;;;4850328;29;20108;-80
2022/05/04 08:16:04;;;;;;;5.43;3.33;;;;;;;;;;4848950;29;20030;-79
2022/05/04 08:18:30;;;;;;;6.43;3.67;;;;;;;;;;4851238;29;20041;-80
2022/05/04 08:20:55;;;;;;;6.55;3.42;;;;;;;;;;4850042;29;20041;-82
2022/05/04 08:23:21;;;;;;;8.02;3.65;;;;;;;;;;4833980;29;20038;-79
2022/05/04 08:25:46;;;;;;;6.43;3.17;;;;;;;;;;4833972;29;20037;-79
2022/05/04 08:28:15;;;;;;;8.18;3.75;;;;;;;;;;4840845;29;20112;-80
2022/05/04 08:30:40;;;;;;;5.85;3.85;;;;;;;;;;4853692;29;20033;-82
2022/05/04 08:33:06;;;;;;;6.03;3.15;;;;;;;;;;4835907;29;20618;-80
2022/05/04 08:35:32;;;;;;;6.80;3.40;;;;;;;;;;4836065;29;20192;-82
2022/05/04 08:37:58;;;;;;;7.63;3.72;;;;;;;;;;4838687;29;20025;-80
2022/05/04 08:40:24;;;;;;;8.68;3.97;;;;;;;;;;4840842;29;20049;-79
2022/05/04 08:42:51;;;;;;;9.73;3.55;;;;;;;;;;4838967;29;20095;-78
2022/05/04 08:45:17;;;;;;;7.45;3.75;;;;;;;;;;4855093;29;20048;-82
2022/05/04 08:47:44;;;;;;;8.27;4.10;;;;;;;;;;4850451;29;20523;-79
2022/05/04 08:50:12;;;;;;;7.35;3.97;;;;;;;;;;4855584;29;20033;-79
2022/05/04 08:52:44;;;;;;;7.90;4.43;;;;;;;;;;4833069;29;20063;-80
2022/05/04 08:55:31;;;;;;;7.53;4.35;;;;;;;;;;4850573;29;21006;-82
2022/05/04 08:57:59;;;;;;;7.47;3.92;;;;;;;;;;4850704;29;20033;-81
2022/05/04 09:00:35;;;;;;;9.70;4.13;;;;;;;;;;4849184;29;20137;-83
2022/05/04 09:03:00;;;;;;;7.35;4.22;;;;;;;;;;4839326;29;20045;-81
2022/05/04 09:06:02;;;;;;;8.45;4.30;;;;;;;;;;4836578;29;20044;-80
2022/05/04 09:12:05;;;;;;;8.48;4.13;;;;;;;;;;4829364;29;20045;-81
2022/05/04 09:14:35;;;;;;;7.45;4.30;;;;;;;;;;4853426;29;20488;-82
2022/05/04 09:23:04;;;;;;;6.80;4.15;;;;;;;;;;4859916;29;20089;-79
2022/05/04 09:25:37;;;;;;;7.95;4.22;;;;;;;;;;4841579;29;20034;-81
2022/05/04 09:28:37;;;;;;;8.57;4.03;;;;;;;;;;4836481;29;20489;-82
2022/05/04 09:31:07;;;;;;;8.80;4.00;;;;;;;;;;4838264;29;20536;-82
2022/05/04 09:33:37;;;;;;;7.63;4.40;;;;;;;;;;4840552;29;20138;-83
2022/05/04 09:36:06;;;;;;;7.28;4.22;;;;;;;;;;4857433;29;20468;-79
2022/05/04 09:47:40;;;;;;;7.97;4.22;;;;;;;;;;4854313;29;20077;-79
2022/05/04 09:50:11;;;;;;;10.88;4.70;;;;;;;;;;4831463;29;20699;-80
2022/05/04 09:52:41;;;;;;;9.27;4.07;;;;;;;;;;4834971;29;20030;-80
2022/05/04 09:55:41;;;;;;;8.55;4.22;;;;;;;;;;4849292;29;20117;-83
2022/05/04 09:58:10;;;;;;;10.45;4.97;;;;;;;;;;4839428;29;20097;-83
2022/05/04 10:00:42;;;;;;;9.02;4.85;;;;;;;;;;4852348;29;20030;-83
2022/05/04 10:03:11;;;;;;;7.60;4.20;;;;;;;;;;4838768;29;20056;-81
2022/05/04 10:05:40;;;;;;;8.93;4.88;;;;;;;;;;4846976;29;20040;-80
2022/05/04 10:08:12;;;;;;;10.73;5.05;;;;;;;;;;4840315;29;20430;-81
2022/05/04 10:10:42;;;;;;;10.13;4.72;;;;;;;;;;4837926;29;21255;-84
2022/05/04 10:13:42;;;;;;;9.80;4.30;;;;;;;;;;4847740;29;20034;-80
2022/05/04 10:16:14;;;;;;;8.32;4.00;;;;;;;;;;4763118;30;20643;-83
2022/05/04 10:21:44;;;;;;;10.40;4.25;;;;;;;;;;4731481;30;20049;-82
2022/05/04 10:24:45;;;;;;;7.55;4.32;;;;;;;;;;4726476;30;20051;-80
2022/05/04 10:27:46;;;;;;;8.15;4.43;;;;;;;;;;4671962;30;20184;-82
2022/05/04 10:33:18;;;;;;;9.93;4.20;;;;;;;;;;4727143;30;20099;-79
2022/05/04 10:39:18;;;;;;;7.28;4.18;;;;;;;;;;4811733;24;20059;-80
2022/05/04 10:41:47;;;;;;;7.03;3.85;;;;;;;;;;4831544;29;20091;-81
2022/05/04 10:45:16;;;;;;;8.43;4.07;;;;;;;;;;4817980;29;21875;-82
2022/05/04 10:47:48;;;;;;;9.45;4.20;;;;;;;;;;4827792;29;20030;-82
2022/05/04 10:50:49;;;;;;;8.93;4.35;;;;;;;;;;4819298;29;20029;-81
2022/05/04 10:53:51;;;;;;;7.10;4.35;;;;;;;;;;4804711;29;20477;-82
2022/05/04 10:56:50;;;;;;;7.68;4.35;;;;;;;;;;4830273;29;20044;-82
2022/05/04 10:59:50;;;;;;;9.18;4.55;;;;;;;;;;4815649;29;20051;-80
2022/05/04 11:02:23;;;;;;;8.45;4.90;;;;;;;;;;4833539;29;20046;-82
2022/05/04 11:04:53;;;;;;;12.52;4.93;;;;;;;;;;4818873;29;20041;-80
2022/05/04 11:07:52;;;;;;;9.05;5.22;;;;;;;;;;4820764;29;20116;-80
2022/05/04 11:10:21;;;;;;;8.73;4.30;;;;;;;;;;4816106;29;20040;-82
2022/05/04 11:12:53;;;;;;;6.85;3.90;;;;;;;;;;4820323;29;20489;-81
2022/05/04 11:15:22;;;;;;;7.43;3.87;;;;;;;;;;4831616;29;20502;-81
2022/05/04 11:17:58;;;;;;;7.25;4.55;;;;;;;;;;4830472;29;20033;-81
2022/05/04 11:26:26;;;;;;;9.63;4.80;;;;;;;;;;4713442;30;20621;-81
2022/05/04 11:28:54;;;;;;;8.88;4.15;;;;;;;;;;4706438;30;20053;-80
2022/05/04 11:31:25;;;;;;;7.57;4.72;;;;;;;;;;4709865;30;20045;-80
2022/05/04 11:33:57;;;;;;;7.72;4.32;;;;;;;;;;4726256;30;20131;-81
2022/05/04 11:36:25;;;;;;;8.98;4.35;;;;;;;;;;4713584;30;20037;-82
2022/05/04 11:46:56;;;;;;;9.35;5.00;;;;;;;;;;4830762;29;20065;-81
2022/05/04 11:49:34;;;;;;;10.25;4.65;;;;;;;;;;4833087;29;20038;-81
2022/05/04 11:52:00;;;;;;;10.13;5.60;;;;;;;;;;4825279;29;20050;-82
2022/05/04 11:54:31;;;;;;;8.68;4.90;;;;;;;;;;4825837;29;21430;-80
2022/05/04 11:56:59;;;;;;;8.20;4.60;;;;;;;;;;4814928;29;20034;-81
2022/05/04 11:59:31;;;;;;;8.13;4.65;;;;;;;;;;4833430;29;20041;-80
2022/05/04 12:02:31;;;;;;;7.80;4.75;;;;;;;;;;4817276;29;20034;-81
2022/05/04 12:05:00;;;;;;;11.25;5.00;;;;;;;;;;4833451;29;20222;-81
2022/05/04 12:07:32;;;;;;;9.00;4.93;;;;;;;;;;4818168;29;20030;-81
2022/05/04 12:10:11;;;;;;;;;;;;;;;;;;;;;
2022/05/04 12:13:02;;;;;;;9.73;5.85;;;;;;;;;;4813443;29;20378;-82
2022/05/04 12:16:03;;;;;;;9.45;4.78;;;;;;;;;;4834355;29;20480;-82
2022/05/04 12:18:35;;;;;;;10.73;5.55;;;;;;;;;;4835212;29;20073;-82
2022/05/04 12:21:32;;;;;;;10.27;5.22;;;;;;;;;;4831117;29;20494;-82
2022/05/04 12:24:04;;;;;;;7.95;4.75;;;;;;;;;;4782505;29;20041;-82
2022/05/04 12:26:33;;;;;;;8.25;4.95;;;;;;;;;;4797158;29;20973;-83
2022/05/04 12:35:08;;;;;;;8.23;4.97;;;;;;;;;;4835115;29;20036;-82
2022/05/04 12:37:36;;;;;;;7.43;4.07;;;;;;;;;;4819597;29;20037;-83
2022/05/04 12:40:09;;;;;;;8.80;5.15;;;;;;;;;;4818316;29;20849;-82
2022/05/04 12:42:37;;;;;;;8.60;4.95;;;;;;;;;;4835228;29;20475;-82
2022/05/04 12:45:06;;;;;;;8.98;5.32;;;;;;;;;;4828864;29;20085;-82
2022/05/04 12:47:38;;;;;;;11.20;5.47;;;;;;;;;;4818276;29;20442;-81
2022/05/04 12:50:42;;;;;;;10.45;5.32;;;;;;;;;;4819077;29;20034;-84
2022/05/04 12:53:07;;;;;;;;;;;;;;;;;;4838301;29;20030;-81
2022/05/04 12:58:41;;;;;;;8.68;5.03;;;;;;;;;;4832444;29;20044;-82
2022/05/04 13:01:10;;;;;;;10.05;5.30;;;;;;;;;;4837422;29;20036;-81
2022/05/04 13:03:41;;;;;;;11.75;5.80;;;;;;;;;;4832538;29;20117;-81
2022/05/04 13:06:09;;;;;;;8.68;5.22;;;;;;;;;;4816562;29;20046;-82
2022/05/04 13:08:41;;;;;;;11.32;5.75;;;;;;;;;;4830195;29;20042;-83
2022/05/04 13:11:41;;;;;;;13.20;6.20;;;;;;;;;;4821447;29;20065;-83
2022/05/04 13:14:42;;;;;;;11.05;5.70;;;;;;;;;;4837040;29;20034;-82
2022/05/04 13:17:15;;;;;;;10.82;5.47;;;;;;;;;;4806683;29;20079;-82
2022/05/04 13:19:41;;;;;;;9.40;5.38;;;;;;;;;;4832708;29;20456;-78
2022/05/04 13:22:06;;;;;;;9.45;5.30;;;;;;;;;;4818249;29;20041;-76
2022/05/04 13:24:32;;;;;;;9.32;5.47;;;;;;;;;;4821672;29;20042;-77
2022/05/04 13:26:57;;;;;;;10.15;5.22;;;;;;;;;;4828101;29;20038;-78
2022/05/04 13:29:23;;;;;;;8.73;5.53;;;;;;;;;;4832898;29;20121;-79
2022/05/04 13:31:49;;;;;;;9.82;5.53;;;;;;;;;;4828181;29;20072;-77
2022/05/04 13:34:15;;;;;;;9.48;5.70;;;;;;;;;;4835325;29;20034;-81
2022/05/04 13:36:40;;;;;;;9.73;5.55;;;;;;;;;;4832884;29;20075;-79
2022/05/04 13:39:05;;;;;;;13.32;6.30;;;;;;;;;;4829416;29;20050;-76
2022/05/04 13:41:32;;;;;;;9.55;5.80;;;;;;;;;;4820131;29;20172;-76
2022/05/04 13:43:59;;;;;;;8.75;5.07;;;;;;;;;;4814325;29;20060;-79
2022/05/04 13:46:26;;;;;;;10.43;5.30;;;;;;;;;;4829417;29;20026;-79
2022/05/04 13:48:51;;;;;;;9.20;5.05;;;;;;;;;;4833235;29;20437;-79
2022/05/04 13:54:01;;;;;;;8.63;4.78;;;;;;;;;;4830969;29;20041;-76
2022/05/04 13:56:26;;;;;;;8.43;5.00;;;;;;;;;;4830051;29;20038;-79
2022/05/04 13:58:52;;;;;;;8.23;4.43;;;;;;;;;;4835518;29;20042;-80
2022/05/04 14:01:17;;;;;;;8.13;4.60;;;;;;;;;;4832198;29;20041;-78
2022/05/04 14:03:42;;;;;;;7.07;4.57;;;;;;;;;;4834463;29;20060;-82
2022/05/04 14:06:08;;;;;;;7.65;4.65;;;;;;;;;;4816120;29;20034;-81
2022/05/04 14:08:36;;;;;;;9.85;5.00;;;;;;;;;;4828380;29;20030;-80
2022/05/04 14:11:03;;;;;;;8.75;4.78;;;;;;;;;;4831309;29;20033;-78
2022/05/04 14:13:28;;;;;;;10.00;5.50;;;;;;;;;;4829101;29;20306;-76
2022/05/04 14:15:58;;;;;;;9.50;5.57;;;;;;;;;;4832610;29;20030;-75
2022/05/04 14:18:24;;;;;;;10.32;5.72;;;;;;;;;;4822324;29;20038;-77
2022/05/04 14:20:51;;;;;;;10.98;5.50;;;;;;;;;;4829250;29;20049;-82
2022/05/04 14:23:17;;;;;;;8.75;5.32;;;;;;;;;;4826799;29;20029;-80
2022/05/04 14:25:43;;;;;;;8.60;5.13;;;;;;;;;;4812682;29;20038;-75
2022/05/04 14:28:09;;;;;;;8.88;5.05;;;;;;;;;;4813830;29;20068;-78
2022/05/04 14:30:35;;;;;;;8.30;5.25;;;;;;;;;;4813249;29;20034;-78
2022/05/04 14:33:01;;;;;;;9.60;5.13;;;;;;;;;;4810918;29;20026;-79
2022/05/04 14:35:27;;;;;;;8.68;5.25;;;;;;;;;;4828011;29;20767;-76
2022/05/04 14:37:52;;;;;;;9.73;5.30;;;;;;;;;;4827759;29;20041;-78
2022/05/04 14:40:18;;;;;;;9.52;4.78;;;;;;;;;;4831945;29;20044;-78
2022/05/04 14:42:44;;;;;;;10.77;5.72;;;;;;;;;;4826087;29;20555;-77
2022/05/04 14:45:09;;;;;;;9.10;5.40;;;;;;;;;;4831480;29;20044;-75
2022/05/04 14:47:35;;;;;;;11.43;5.57;;;;;;;;;;4823525;29;20076;-76
2022/05/04 14:50:01;;;;;;;10.48;5.68;;;;;;;;;;4812435;29;20042;-82
2022/05/04 14:52:26;;;;;;;9.68;4.72;;;;;;;;;;4826713;29;20465;-76
2022/05/04 14:54:52;;;;;;;7.15;4.47;;;;;;;;;;4820190;29;20033;-78
2022/05/04 14:57:19;;;;;;;11.20;5.60;;;;;;;;;;4814129;29;20038;-82
2022/05/04 14:59:47;;;;;;;8.30;4.80;;;;;;;;;;4820218;29;20038;-81
2022/05/04 15:02:12;;;;;;;9.63;5.93;;;;;;;;;;4810676;29;20223;-81
2022/05/04 15:07:22;;;;;;;8.43;5.20;;;;;;;;;;4830953;29;20096;-79
2022/05/04 15:09:47;;;;;;;12.35;5.32;;;;;;;;;;4824314;29;22196;-79
2022/05/04 15:12:12;;;;;;;9.68;5.30;;;;;;;;;;4813130;29;20061;-77
2022/05/04 15:14:38;;;;;;;10.50;5.95;;;;;;;;;;4821340;29;20053;-77
2022/05/04 15:17:03;;;;;;;11.20;6.57;;;;;;;;;;4827369;29;20072;-79
2022/05/04 15:19:29;;;;;;;10.35;5.60;;;;;;;;;;4813311;29;20061;-80
2022/05/04 15:21:55;;;;;;;11.20;5.22;;;;;;;;;;4825485;29;20118;-76
2022/05/04 15:24:20;;;;;;;10.32;5.80;;;;;;;;;;4825870;29;20041;-77
2022/05/04 15:26:46;;;;;;;12.30;5.25;;;;;;;;;;4806992;29;20409;-77
2022/05/04 15:29:11;;;;;;;8.45;4.80;;;;;;;;;;4821039;29;20092;-76
2022/05/04 15:31:37;;;;;;;9.60;4.70;;;;;;;;;;4818003;29;20033;-75
2022/05/04 15:34:02;;;;;;;10.20;4.47;;;;;;;;;;4829990;29;20140;-79
2022/05/04 15:36:27;;;;;;;8.55;4.53;;;;;;;;;;4829260;29;20042;-79
2022/05/04 15:38:53;;;;;;;12.75;4.32;;;;;;;;;;4827642;29;20038;-76
2022/05/04 15:41:18;;;;;;;7.60;4.63;;;;;;;;;;4817825;29;20774;-79
2022/05/04 15:43:44;;;;;;;7.88;4.05;;;;;;;;;;4829421;29;20054;-79
2022/05/04 15:46:09;;;;;;;7.30;4.10;;;;;;;;;;4824600;29;20040;-79
2022/05/04 15:48:35;;;;;;;8.07;3.80;;;;;;;;;;4828480;29;20034;-77
2022/05/04 15:51:07;;;;;;;7.13;4.00;;;;;;;;;;4816005;29;20432;-82
2022/05/04 15:53:33;;;;;;;8.10;4.22;;;;;;;;;;4830754;29;20118;-77
2022/05/04 15:55:58;;;;;;;9.93;4.55;;;;;;;;;;4828250;29;20055;-77
2022/05/04 15:58:24;;;;;;;7.57;3.90;;;;;;;;;;4817022;29;20034;-77
2022/05/04 16:00:51;;;;;;;8.15;4.22;;;;;;;;;;4815032;29;20131;-80
2022/05/04 16:06:10;;;;;;;9.68;4.00;;;;;;;;;;4827700;29;20040;-83
2022/05/04 16:08:38;;;;;;;7.47;3.92;;;;;;;;;;4815212;29;20129;-82
2022/05/04 16:11:05;;;;;;;6.97;4.00;;;;;;;;;;4823653;29;20034;-85
2022/05/04 16:13:31;;;;;;;9.05;4.18;;;;;;;;;;4813419;29;20092;-86
2022/05/04 16:15:56;;;;;;;7.43;4.45;;;;;;;;;;4830347;29;20488;-84